sensor_id;sensor_type;location;lat;lon;timestamp;P1;durP1;ratioP1;P2;durP2;ratioP2
66575;SDS011;53428;47.686;16.584;2023-05-29T00:00:10;15.63;;;5.43;;
66575;SDS011;53428;47.686;16.584;2023-05-29T00:05:11;7.93;;;4.68;;
66575;SDS011;53428;47.686;16.584;2023-05-29T00:10:11;11.43;;;4.68;;
66575;SDS011;53428;47.686;16.584;2023-05-29T00:15:11;11.68;;;5.25;;
66575;SDS011;53428;47.686;16.584;2023-05-29T00:20:11;9.57;;;5.10;;
66575;SDS011;53428;47.686;16.584;2023-05-29T00:25:11;14.20;;;5.45;;
66575;SDS011;53428;47.686;16.584;2023-05-29T00:30:10;10.25;;;4.63;;
66575;SDS011;53428;47.686;16.584;2023-05-29T00:35:10;8.50;;;4.80;;
66575;SDS011;53428;47.686;16.584;2023-05-29T00:40:10;9.13;;;5.70;;
66575;SDS011;53428;47.686;16.584;2023-05-29T00:45:10;12.32;;;5.18;;
66575;SDS011;53428;47.686;16.584;2023-05-29T00:50:09;18.23;;;4.90;;
66575;SDS011;53428;47.686;16.584;2023-05-29T00:55:12;7.20;;;4.13;;
66575;SDS011;53428;47.686;16.584;2023-05-29T01:00:12;11.35;;;4.32;;
66575;SDS011;53428;47.686;16.584;2023-05-29T01:05:13;12.73;;;4.43;;
66575;SDS011;53428;47.686;16.584;2023-05-29T01:10:13;11.10;;;4.65;;
66575;SDS011;53428;47.686;16.584;2023-05-29T01:20:40;8.70;;;4.50;;
66575;SDS011;53428;47.686;16.584;2023-05-29T01:31:12;10.52;;;4.43;;
66575;SDS011;53428;47.686;16.584;2023-05-29T01:36:16;8.15;;;5.15;;
66575;SDS011;53428;47.686;16.584;2023-05-29T01:41:15;11.93;;;5.38;;
66575;SDS011;53428;47.686;16.584;2023-05-29T01:46:15;12.02;;;5.22;;
66575;SDS011;53428;47.686;16.584;2023-05-29T01:51:16;7.95;;;4.40;;
66575;SDS011;53428;47.686;16.584;2023-05-29T01:56:16;11.82;;;4.88;;
66575;SDS011;53428;47.686;16.584;2023-05-29T02:01:15;9.70;;;4.65;;
66575;SDS011;53428;47.686;16.584;2023-05-29T02:06:15;14.52;;;4.68;;
66575;SDS011;53428;47.686;16.584;2023-05-29T02:11:14;7.60;;;4.30;;
66575;SDS011;53428;47.686;16.584;2023-05-29T02:16:14;11.73;;;4.95;;
66575;SDS011;53428;47.686;16.584;2023-05-29T02:21:14;12.10;;;4.35;;
66575;SDS011;53428;47.686;16.584;2023-05-29T02:26:13;8.82;;;4.65;;
66575;SDS011;53428;47.686;16.584;2023-05-29T02:31:14;11.18;;;4.72;;
66575;SDS011;53428;47.686;16.584;2023-05-29T02:36:14;13.02;;;4.32;;
66575;SDS011;53428;47.686;16.584;2023-05-29T02:41:15;11.48;;;5.15;;
66575;SDS011;53428;47.686;16.584;2023-05-29T02:46:14;10.15;;;4.68;;
66575;SDS011;53428;47.686;16.584;2023-05-29T02:51:14;12.13;;;4.63;;
66575;SDS011;53428;47.686;16.584;2023-05-29T02:56:13;7.32;;;4.40;;
66575;SDS011;53428;47.686;16.584;2023-05-29T03:01:14;8.27;;;4.75;;
66575;SDS011;53428;47.686;16.584;2023-05-29T03:06:14;9.82;;;4.93;;
66575;SDS011;53428;47.686;16.584;2023-05-29T03:11:15;10.80;;;4.90;;
66575;SDS011;53428;47.686;16.584;2023-05-29T03:16:14;10.05;;;4.32;;
66575;SDS011;53428;47.686;16.584;2023-05-29T03:21:15;10.50;;;4.30;;
66575;SDS011;53428;47.686;16.584;2023-05-29T03:26:14;8.85;;;4.45;;
66575;SDS011;53428;47.686;16.584;2023-05-29T03:31:14;6.32;;;3.45;;
66575;SDS011;53428;47.686;16.584;2023-05-29T03:36:14;7.00;;;4.30;;
66575;SDS011;53428;47.686;16.584;2023-05-29T03:41:15;6.43;;;3.50;;
66575;SDS011;53428;47.686;16.584;2023-05-29T03:46:15;9.10;;;3.70;;
66575;SDS011;53428;47.686;16.584;2023-05-29T03:51:14;7.80;;;3.63;;
66575;SDS011;53428;47.686;16.584;2023-05-29T03:56:13;11.70;;;4.25;;
66575;SDS011;53428;47.686;16.584;2023-05-29T04:01:13;19.95;;;5.00;;
66575;SDS011;53428;47.686;16.584;2023-05-29T04:06:12;13.73;;;4.18;;
66575;SDS011;53428;47.686;16.584;2023-05-29T04:11:11;10.57;;;3.53;;
66575;SDS011;53428;47.686;16.584;2023-05-29T04:16:12;10.45;;;3.95;;
66575;SDS011;53428;47.686;16.584;2023-05-29T04:21:12;8.73;;;4.57;;
66575;SDS011;53428;47.686;16.584;2023-05-29T04:26:11;8.25;;;3.80;;
66575;SDS011;53428;47.686;16.584;2023-05-29T04:31:11;5.57;;;3.53;;
66575;SDS011;53428;47.686;16.584;2023-05-29T04:36:13;11.45;;;3.75;;
66575;SDS011;53428;47.686;16.584;2023-05-29T04:41:12;10.57;;;3.75;;
66575;SDS011;53428;47.686;16.584;2023-05-29T04:46:11;12.35;;;3.53;;
66575;SDS011;53428;47.686;16.584;2023-05-29T04:51:11;11.50;;;3.25;;
66575;SDS011;53428;47.686;16.584;2023-05-29T04:56:10;8.43;;;3.15;;
66575;SDS011;53428;47.686;16.584;2023-05-29T05:01:09;8.20;;;3.45;;
66575;SDS011;53428;47.686;16.584;2023-05-29T05:06:12;6.38;;;3.63;;
66575;SDS011;53428;47.686;16.584;2023-05-29T05:11:12;8.82;;;3.75;;
66575;SDS011;53428;47.686;16.584;2023-05-29T05:16:12;11.32;;;3.72;;
66575;SDS011;53428;47.686;16.584;2023-05-29T05:21:12;9.00;;;3.58;;
66575;SDS011;53428;47.686;16.584;2023-05-29T05:26:11;9.18;;;2.97;;
66575;SDS011;53428;47.686;16.584;2023-05-29T05:31:10;6.97;;;3.78;;
66575;SDS011;53428;47.686;16.584;2023-05-29T05:36:10;7.53;;;3.35;;
66575;SDS011;53428;47.686;16.584;2023-05-29T05:41:09;6.20;;;3.28;;
66575;SDS011;53428;47.686;16.584;2023-05-29T05:46:09;5.13;;;2.65;;
66575;SDS011;53428;47.686;16.584;2023-05-29T05:51:08;5.88;;;2.92;;
66575;SDS011;53428;47.686;16.584;2023-05-29T05:56:07;7.70;;;3.00;;
66575;SDS011;53428;47.686;16.584;2023-05-29T06:01:07;6.00;;;3.30;;
66575;SDS011;53428;47.686;16.584;2023-05-29T06:06:07;14.77;;;3.65;;
66575;SDS011;53428;47.686;16.584;2023-05-29T06:11:07;7.38;;;2.92;;
66575;SDS011;53428;47.686;16.584;2023-05-29T06:16:06;6.20;;;3.25;;
66575;SDS011;53428;47.686;16.584;2023-05-29T06:21:06;6.90;;;3.10;;
66575;SDS011;53428;47.686;16.584;2023-05-29T06:26:06;7.70;;;3.35;;
66575;SDS011;53428;47.686;16.584;2023-05-29T06:31:05;5.25;;;2.80;;
66575;SDS011;53428;47.686;16.584;2023-05-29T06:36:05;7.28;;;3.50;;
66575;SDS011;53428;47.686;16.584;2023-05-29T06:41:05;3.75;;;2.65;;
66575;SDS011;53428;47.686;16.584;2023-05-29T06:46:04;11.60;;;3.72;;
66575;SDS011;53428;47.686;16.584;2023-05-29T06:51:03;6.90;;;3.78;;
66575;SDS011;53428;47.686;16.584;2023-05-29T06:56:08;6.32;;;3.40;;
66575;SDS011;53428;47.686;16.584;2023-05-29T07:01:07;9.77;;;3.60;;
66575;SDS011;53428;47.686;16.584;2023-05-29T07:06:06;6.20;;;3.83;;
66575;SDS011;53428;47.686;16.584;2023-05-29T07:11:06;7.78;;;3.30;;
66575;SDS011;53428;47.686;16.584;2023-05-29T07:16:05;8.32;;;4.07;;
66575;SDS011;53428;47.686;16.584;2023-05-29T07:21:05;12.40;;;4.85;;
66575;SDS011;53428;47.686;16.584;2023-05-29T07:26:04;7.95;;;3.72;;
66575;SDS011;53428;47.686;16.584;2023-05-29T07:31:04;5.43;;;3.88;;
66575;SDS011;53428;47.686;16.584;2023-05-29T07:36:03;7.53;;;3.17;;
66575;SDS011;53428;47.686;16.584;2023-05-29T07:41:03;6.72;;;3.38;;
66575;SDS011;53428;47.686;16.584;2023-05-29T07:46:02;5.85;;;3.00;;
66575;SDS011;53428;47.686;16.584;2023-05-29T07:51:02;7.40;;;3.30;;
66575;SDS011;53428;47.686;16.584;2023-05-29T07:56:02;6.97;;;3.45;;
66575;SDS011;53428;47.686;16.584;2023-05-29T08:01:01;5.97;;;3.83;;
66575;SDS011;53428;47.686;16.584;2023-05-29T08:06:01;4.63;;;3.20;;
66575;SDS011;53428;47.686;16.584;2023-05-29T08:11:00;5.13;;;3.17;;
66575;SDS011;53428;47.686;16.584;2023-05-29T08:16:00;7.38;;;3.00;;
66575;SDS011;53428;47.686;16.584;2023-05-29T08:20:59;8.77;;;3.33;;
66575;SDS011;53428;47.686;16.584;2023-05-29T08:25:58;11.15;;;3.60;;
66575;SDS011;53428;47.686;16.584;2023-05-29T08:30:58;7.38;;;2.67;;
66575;SDS011;53428;47.686;16.584;2023-05-29T08:35:58;8.50;;;2.78;;
66575;SDS011;53428;47.686;16.584;2023-05-29T08:40:57;5.20;;;3.08;;
66575;SDS011;53428;47.686;16.584;2023-05-29T08:45:59;8.27;;;2.88;;
66575;SDS011;53428;47.686;16.584;2023-05-29T08:51:00;12.18;;;3.58;;
66575;SDS011;53428;47.686;16.584;2023-05-29T08:56:01;6.00;;;2.47;;
66575;SDS011;53428;47.686;16.584;2023-05-29T09:01:02;11.15;;;2.70;;
66575;SDS011;53428;47.686;16.584;2023-05-29T09:06:01;3.55;;;2.50;;
66575;SDS011;53428;47.686;16.584;2023-05-29T09:11:02;5.95;;;3.13;;
66575;SDS011;53428;47.686;16.584;2023-05-29T09:16:01;6.47;;;3.10;;
66575;SDS011;53428;47.686;16.584;2023-05-29T09:21:06;7.07;;;3.35;;
66575;SDS011;53428;47.686;16.584;2023-05-29T09:26:09;6.97;;;3.05;;
66575;SDS011;53428;47.686;16.584;2023-05-29T09:31:16;7.15;;;3.28;;
66575;SDS011;53428;47.686;16.584;2023-05-29T09:36:22;10.00;;;3.33;;
66575;SDS011;53428;47.686;16.584;2023-05-29T09:41:21;8.10;;;3.33;;
66575;SDS011;53428;47.686;16.584;2023-05-29T09:46:22;12.75;;;3.15;;
66575;SDS011;53428;47.686;16.584;2023-05-29T09:51:22;5.40;;;3.25;;
66575;SDS011;53428;47.686;16.584;2023-05-29T09:56:25;7.72;;;2.80;;
66575;SDS011;53428;47.686;16.584;2023-05-29T10:01:25;6.25;;;3.20;;
66575;SDS011;53428;47.686;16.584;2023-05-29T10:06:26;5.55;;;3.45;;
66575;SDS011;53428;47.686;16.584;2023-05-29T10:11:28;5.50;;;2.80;;
66575;SDS011;53428;47.686;16.584;2023-05-29T10:16:28;7.38;;;3.42;;
66575;SDS011;53428;47.686;16.584;2023-05-29T10:21:29;5.88;;;3.00;;
66575;SDS011;53428;47.686;16.584;2023-05-29T10:26:30;6.45;;;3.40;;
66575;SDS011;53428;47.686;16.584;2023-05-29T10:31:33;8.90;;;3.70;;
66575;SDS011;53428;47.686;16.584;2023-05-29T10:37:05;6.55;;;3.65;;
66575;SDS011;53428;47.686;16.584;2023-05-29T10:47:46;4.55;;;3.25;;
66575;SDS011;53428;47.686;16.584;2023-05-29T10:52:46;7.75;;;3.70;;
66575;SDS011;53428;47.686;16.584;2023-05-29T10:57:46;12.40;;;4.15;;
66575;SDS011;53428;47.686;16.584;2023-05-29T11:02:47;4.93;;;3.45;;
66575;SDS011;53428;47.686;16.584;2023-05-29T11:07:53;4.95;;;3.03;;
66575;SDS011;53428;47.686;16.584;2023-05-29T11:12:56;13.10;;;3.50;;
66575;SDS011;53428;47.686;16.584;2023-05-29T11:23:06;8.52;;;2.78;;
66575;SDS011;53428;47.686;16.584;2023-05-29T11:28:08;7.30;;;3.50;;
66575;SDS011;53428;47.686;16.584;2023-05-29T11:33:10;7.30;;;2.95;;
66575;SDS011;53428;47.686;16.584;2023-05-29T11:38:18;7.03;;;4.18;;
66575;SDS011;53428;47.686;16.584;2023-05-29T11:43:17;6.30;;;3.10;;
66575;SDS011;53428;47.686;16.584;2023-05-29T11:48:17;4.05;;;3.05;;
66575;SDS011;53428;47.686;16.584;2023-05-29T11:53:16;6.43;;;3.15;;
66575;SDS011;53428;47.686;16.584;2023-05-29T11:58:15;10.50;;;3.20;;
66575;SDS011;53428;47.686;16.584;2023-05-29T12:03:15;7.90;;;3.08;;
66575;SDS011;53428;47.686;16.584;2023-05-29T12:08:15;5.18;;;3.17;;
66575;SDS011;53428;47.686;16.584;2023-05-29T12:13:15;7.65;;;3.65;;
66575;SDS011;53428;47.686;16.584;2023-05-29T12:18:17;5.15;;;3.47;;
66575;SDS011;53428;47.686;16.584;2023-05-29T12:23:17;8.65;;;3.70;;
66575;SDS011;53428;47.686;16.584;2023-05-29T12:28:20;5.72;;;3.50;;
66575;SDS011;53428;47.686;16.584;2023-05-29T12:33:27;8.65;;;3.22;;
66575;SDS011;53428;47.686;16.584;2023-05-29T12:38:27;5.35;;;3.17;;
66575;SDS011;53428;47.686;16.584;2023-05-29T12:43:27;6.30;;;4.00;;
66575;SDS011;53428;47.686;16.584;2023-05-29T12:48:27;8.88;;;4.25;;
66575;SDS011;53428;47.686;16.584;2023-05-29T12:53:28;4.93;;;3.40;;
66575;SDS011;53428;47.686;16.584;2023-05-29T12:58:28;6.97;;;3.10;;
66575;SDS011;53428;47.686;16.584;2023-05-29T13:03:28;6.35;;;3.60;;
66575;SDS011;53428;47.686;16.584;2023-05-29T13:08:28;6.53;;;2.90;;
66575;SDS011;53428;47.686;16.584;2023-05-29T13:13:28;7.68;;;3.25;;
66575;SDS011;53428;47.686;16.584;2023-05-29T13:18:27;9.35;;;3.83;;
66575;SDS011;53428;47.686;16.584;2023-05-29T13:23:26;4.85;;;2.90;;
66575;SDS011;53428;47.686;16.584;2023-05-29T13:28:26;6.97;;;3.67;;
66575;SDS011;53428;47.686;16.584;2023-05-29T13:33:26;5.97;;;3.08;;
66575;SDS011;53428;47.686;16.584;2023-05-29T13:38:25;5.22;;;2.78;;
66575;SDS011;53428;47.686;16.584;2023-05-29T13:43:25;3.80;;;2.60;;
66575;SDS011;53428;47.686;16.584;2023-05-29T13:48:24;6.68;;;3.47;;
66575;SDS011;53428;47.686;16.584;2023-05-29T13:53:23;4.25;;;3.33;;
66575;SDS011;53428;47.686;16.584;2023-05-29T13:58:24;7.13;;;3.50;;
66575;SDS011;53428;47.686;16.584;2023-05-29T14:03:24;3.95;;;2.65;;
66575;SDS011;53428;47.686;16.584;2023-05-29T14:08:27;11.45;;;3.47;;
66575;SDS011;53428;47.686;16.584;2023-05-29T14:13:26;6.97;;;3.28;;
66575;SDS011;53428;47.686;16.584;2023-05-29T14:18:26;8.18;;;3.17;;
66575;SDS011;53428;47.686;16.584;2023-05-29T14:23:25;3.92;;;2.72;;
66575;SDS011;53428;47.686;16.584;2023-05-29T14:28:24;4.38;;;3.38;;
66575;SDS011;53428;47.686;16.584;2023-05-29T14:33:23;4.90;;;2.72;;
66575;SDS011;53428;47.686;16.584;2023-05-29T14:38:24;6.88;;;3.40;;
66575;SDS011;53428;47.686;16.584;2023-05-29T14:43:24;5.65;;;2.67;;
66575;SDS011;53428;47.686;16.584;2023-05-29T14:48:23;8.77;;;3.33;;
66575;SDS011;53428;47.686;16.584;2023-05-29T14:53:23;3.50;;;2.83;;
66575;SDS011;53428;47.686;16.584;2023-05-29T14:58:23;4.60;;;2.72;;
66575;SDS011;53428;47.686;16.584;2023-05-29T15:03:24;5.40;;;3.42;;
66575;SDS011;53428;47.686;16.584;2023-05-29T15:08:26;4.60;;;2.72;;
66575;SDS011;53428;47.686;16.584;2023-05-29T15:13:26;4.25;;;3.40;;
66575;SDS011;53428;47.686;16.584;2023-05-29T15:18:26;7.05;;;3.00;;
66575;SDS011;53428;47.686;16.584;2023-05-29T15:23:25;6.18;;;3.17;;
66575;SDS011;53428;47.686;16.584;2023-05-29T15:28:25;4.75;;;2.70;;
66575;SDS011;53428;47.686;16.584;2023-05-29T15:33:30;4.97;;;2.85;;
66575;SDS011;53428;47.686;16.584;2023-05-29T15:38:50;7.10;;;3.20;;
66575;SDS011;53428;47.686;16.584;2023-05-29T15:44:02;5.03;;;2.50;;
66575;SDS011;53428;47.686;16.584;2023-05-29T15:49:14;4.20;;;3.20;;
66575;SDS011;53428;47.686;16.584;2023-05-29T15:54:13;5.63;;;2.72;;
66575;SDS011;53428;47.686;16.584;2023-05-29T15:59:12;6.18;;;3.03;;
66575;SDS011;53428;47.686;16.584;2023-05-29T16:04:12;4.82;;;3.03;;
66575;SDS011;53428;47.686;16.584;2023-05-29T16:09:13;6.45;;;2.97;;
66575;SDS011;53428;47.686;16.584;2023-05-29T16:14:13;5.72;;;3.35;;
66575;SDS011;53428;47.686;16.584;2023-05-29T16:19:12;4.18;;;2.60;;
66575;SDS011;53428;47.686;16.584;2023-05-29T16:24:11;5.47;;;2.90;;
66575;SDS011;53428;47.686;16.584;2023-05-29T16:29:11;4.78;;;2.90;;
66575;SDS011;53428;47.686;16.584;2023-05-29T16:34:10;4.80;;;3.00;;
66575;SDS011;53428;47.686;16.584;2023-05-29T16:39:10;6.03;;;3.00;;
66575;SDS011;53428;47.686;16.584;2023-05-29T16:44:10;5.53;;;3.22;;
66575;SDS011;53428;47.686;16.584;2023-05-29T16:49:10;4.35;;;2.92;;
66575;SDS011;53428;47.686;16.584;2023-05-29T16:54:09;5.45;;;3.08;;
66575;SDS011;53428;47.686;16.584;2023-05-29T16:59:08;5.65;;;3.35;;
66575;SDS011;53428;47.686;16.584;2023-05-29T17:04:08;5.35;;;2.85;;
66575;SDS011;53428;47.686;16.584;2023-05-29T17:09:09;8.27;;;2.97;;
66575;SDS011;53428;47.686;16.584;2023-05-29T17:14:10;6.50;;;2.95;;
66575;SDS011;53428;47.686;16.584;2023-05-29T17:19:12;8.27;;;2.63;;
66575;SDS011;53428;47.686;16.584;2023-05-29T17:24:12;5.97;;;2.83;;
66575;SDS011;53428;47.686;16.584;2023-05-29T17:29:12;6.32;;;3.42;;
66575;SDS011;53428;47.686;16.584;2023-05-29T17:34:14;7.25;;;2.90;;
66575;SDS011;53428;47.686;16.584;2023-05-29T17:39:13;4.55;;;2.88;;
66575;SDS011;53428;47.686;16.584;2023-05-29T17:44:15;7.03;;;3.28;;
66575;SDS011;53428;47.686;16.584;2023-05-29T17:49:15;5.10;;;3.30;;
66575;SDS011;53428;47.686;16.584;2023-05-29T17:54:14;5.78;;;3.45;;
66575;SDS011;53428;47.686;16.584;2023-05-29T17:59:14;8.65;;;3.13;;
66575;SDS011;53428;47.686;16.584;2023-05-29T18:04:15;8.88;;;3.25;;
66575;SDS011;53428;47.686;16.584;2023-05-29T18:09:14;5.43;;;3.28;;
66575;SDS011;53428;47.686;16.584;2023-05-29T18:14:13;4.70;;;2.40;;
66575;SDS011;53428;47.686;16.584;2023-05-29T18:19:13;4.57;;;2.97;;
66575;SDS011;53428;47.686;16.584;2023-05-29T18:24:15;9.32;;;3.13;;
66575;SDS011;53428;47.686;16.584;2023-05-29T18:29:16;6.90;;;3.55;;
66575;SDS011;53428;47.686;16.584;2023-05-29T18:34:15;7.35;;;3.17;;
66575;SDS011;53428;47.686;16.584;2023-05-29T18:39:15;6.05;;;3.45;;
66575;SDS011;53428;47.686;16.584;2023-05-29T18:44:15;9.50;;;4.28;;
66575;SDS011;53428;47.686;16.584;2023-05-29T18:49:15;5.63;;;3.10;;
66575;SDS011;53428;47.686;16.584;2023-05-29T18:54:14;5.38;;;2.90;;
66575;SDS011;53428;47.686;16.584;2023-05-29T19:04:15;10.50;;;3.70;;
66575;SDS011;53428;47.686;16.584;2023-05-29T19:09:15;6.85;;;3.25;;
66575;SDS011;53428;47.686;16.584;2023-05-29T19:14:15;8.93;;;3.38;;
66575;SDS011;53428;47.686;16.584;2023-05-29T19:19:15;11.52;;;3.75;;
66575;SDS011;53428;47.686;16.584;2023-05-29T19:24:16;24.27;;;3.83;;
66575;SDS011;53428;47.686;16.584;2023-05-29T19:29:16;10.70;;;4.00;;
66575;SDS011;53428;47.686;16.584;2023-05-29T19:34:16;9.70;;;3.53;;
66575;SDS011;53428;47.686;16.584;2023-05-29T19:39:16;7.57;;;3.90;;
66575;SDS011;53428;47.686;16.584;2023-05-29T19:44:15;13.23;;;4.00;;
66575;SDS011;53428;47.686;16.584;2023-05-29T19:49:14;7.38;;;3.83;;
66575;SDS011;53428;47.686;16.584;2023-05-29T19:54:13;6.95;;;3.63;;
66575;SDS011;53428;47.686;16.584;2023-05-29T19:59:13;10.73;;;4.75;;
66575;SDS011;53428;47.686;16.584;2023-05-29T20:04:13;9.90;;;4.00;;
66575;SDS011;53428;47.686;16.584;2023-05-29T20:09:12;13.98;;;3.67;;
66575;SDS011;53428;47.686;16.584;2023-05-29T20:14:12;8.93;;;4.05;;
66575;SDS011;53428;47.686;16.584;2023-05-29T20:19:11;9.10;;;3.05;;
66575;SDS011;53428;47.686;16.584;2023-05-29T20:24:10;11.25;;;3.25;;
66575;SDS011;53428;47.686;16.584;2023-05-29T20:29:11;6.65;;;4.03;;
66575;SDS011;53428;47.686;16.584;2023-05-29T20:34:10;9.68;;;3.60;;
66575;SDS011;53428;47.686;16.584;2023-05-29T20:39:10;11.07;;;3.10;;
66575;SDS011;53428;47.686;16.584;2023-05-29T20:44:09;6.43;;;3.28;;
66575;SDS011;53428;47.686;16.584;2023-05-29T20:49:08;6.55;;;3.45;;
66575;SDS011;53428;47.686;16.584;2023-05-29T20:54:07;9.43;;;4.22;;
66575;SDS011;53428;47.686;16.584;2023-05-29T20:59:07;6.00;;;3.20;;
66575;SDS011;53428;47.686;16.584;2023-05-29T21:04:07;10.50;;;3.22;;
66575;SDS011;53428;47.686;16.584;2023-05-29T21:09:07;5.45;;;3.60;;
66575;SDS011;53428;47.686;16.584;2023-05-29T21:14:06;7.85;;;3.90;;
66575;SDS011;53428;47.686;16.584;2023-05-29T21:19:05;8.63;;;3.13;;
66575;SDS011;53428;47.686;16.584;2023-05-29T21:24:05;8.10;;;3.10;;
66575;SDS011;53428;47.686;16.584;2023-05-29T21:29:09;6.90;;;3.60;;
66575;SDS011;53428;47.686;16.584;2023-05-29T21:34:09;11.80;;;6.88;;
66575;SDS011;53428;47.686;16.584;2023-05-29T21:39:08;9.23;;;3.95;;
66575;SDS011;53428;47.686;16.584;2023-05-29T21:44:07;6.70;;;3.90;;
66575;SDS011;53428;47.686;16.584;2023-05-29T21:49:07;8.90;;;3.88;;
66575;SDS011;53428;47.686;16.584;2023-05-29T21:54:06;9.07;;;3.88;;
66575;SDS011;53428;47.686;16.584;2023-05-29T21:59:05;5.45;;;3.55;;
66575;SDS011;53428;47.686;16.584;2023-05-29T22:04:05;8.70;;;3.90;;
66575;SDS011;53428;47.686;16.584;2023-05-29T22:09:05;9.02;;;3.67;;
66575;SDS011;53428;47.686;16.584;2023-05-29T22:14:05;5.30;;;3.17;;
66575;SDS011;53428;47.686;16.584;2023-05-29T22:19:04;10.10;;;3.78;;
66575;SDS011;53428;47.686;16.584;2023-05-29T22:24:04;9.05;;;4.07;;
66575;SDS011;53428;47.686;16.584;2023-05-29T22:29:04;6.38;;;3.15;;
66575;SDS011;53428;47.686;16.584;2023-05-29T22:34:03;5.40;;;3.25;;
66575;SDS011;53428;47.686;16.584;2023-05-29T22:39:03;4.75;;;2.83;;
66575;SDS011;53428;47.686;16.584;2023-05-29T22:44:02;6.72;;;3.28;;
66575;SDS011;53428;47.686;16.584;2023-05-29T22:49:02;6.75;;;3.28;;
66575;SDS011;53428;47.686;16.584;2023-05-29T22:54:01;5.97;;;3.63;;
66575;SDS011;53428;47.686;16.584;2023-05-29T22:59:01;6.28;;;3.78;;
66575;SDS011;53428;47.686;16.584;2023-05-29T23:04:00;5.65;;;2.92;;
66575;SDS011;53428;47.686;16.584;2023-05-29T23:08:59;10.43;;;3.80;;
66575;SDS011;53428;47.686;16.584;2023-05-29T23:14:03;9.00;;;4.18;;
66575;SDS011;53428;47.686;16.584;2023-05-29T23:19:02;5.80;;;3.60;;
66575;SDS011;53428;47.686;16.584;2023-05-29T23:24:02;8.23;;;3.97;;
66575;SDS011;53428;47.686;16.584;2023-05-29T23:29:03;6.85;;;3.58;;
66575;SDS011;53428;47.686;16.584;2023-05-29T23:34:03;7.72;;;3.85;;
66575;SDS011;53428;47.686;16.584;2023-05-29T23:39:02;7.70;;;3.60;;
66575;SDS011;53428;47.686;16.584;2023-05-29T23:44:02;6.72;;;3.45;;
66575;SDS011;53428;47.686;16.584;2023-05-29T23:49:02;7.43;;;4.28;;
66575;SDS011;53428;47.686;16.584;2023-05-29T23:54:02;9.25;;;3.53;;
66575;SDS011;53428;47.686;16.584;2023-05-29T23:59:02;7.03;;;3.67;;
